Adolphus, Kentucky
Current Conditions -  °F | °C
As of 2:53 PM on Thursday 20 Nov 2014 (Local Time) from KBWG Reporting Station
Clear Clear  
Wind Chill: 36°   Ceiling: Unl
Heat Index: 42°   Visibility: 10mi
Dew Point: 18°   Wind: 10mph
Humidity: 38%   Direction: 220°SW
Pressure: 30.2"   Gusts: NA
Location:  36.65°N, 86.26°W
Report Text: KBWG 202053Z AUTO 22009KT 10SM CLR 06/M08 A3020 RMK AO2 SLP231 T00561078 56011
Loading
Personal Weather Stations






























Interactive Weather Map New forecast layout! Learn more

10-Day Weather Forecast

Advertisements
Track Severe Weather on mobile